Time;durP1;ratioP1;P1;durP2;ratioP2;P2;SDS_P1;SDS_P2;PMS_P1;PMS_P2;Temp;Humidity;BMP_temperature;BMP_pressure;BME280_temperature;BME280_humidity;BME280_pressure;Samples;Min_cycle;Max_cycle;Signal;HPM_P1;HPM_P2
2022/08/04 00:00:16;;;;;;;1999.90;999.90;;;18.40;99.90;;;;;;5092869;27;20039;-75
2022/08/04 00:03:13;;;;;;;1999.90;999.90;;;18.50;99.90;;;;;;5128554;27;20024;-75
2022/08/04 00:05:57;;;;;;;1999.90;999.90;;;18.50;99.90;;;;;;5121165;27;20083;-75
2022/08/04 00:08:47;;;;;;;1999.90;999.90;;;18.50;99.90;;;;;;5110334;27;20055;-75
2022/08/04 00:11:24;;;;;;;1999.90;999.90;;;18.50;99.90;;;;;;5125033;27;20099;-75
2022/08/04 00:14:03;;;;;;;1999.90;999.90;;;18.60;99.90;;;;;;5128889;27;20034;-75
2022/08/04 00:16:32;;;;;;;1999.90;999.90;;;18.60;99.90;;;;;;5125518;27;20046;-75
2022/08/04 00:19:02;;;;;;;1999.90;999.90;;;18.60;99.90;;;;;;5111675;27;20031;-75
2022/08/04 00:21:34;;;;;;;1999.90;999.90;;;18.60;99.90;;;;;;5118698;27;20035;-75
2022/08/04 00:24:01;;;;;;;1999.90;999.90;;;18.60;99.90;;;;;;5125911;27;20122;-75
2022/08/04 00:26:27;;;;;;;1999.90;999.90;;;18.60;99.90;;;;;;5127946;27;20486;-75
2022/08/04 00:28:54;;;;;;;1999.90;999.90;;;18.60;99.90;;;;;;5130229;27;20042;-75
2022/08/04 00:31:21;;;;;;;1999.90;999.90;;;18.60;99.90;;;;;;5123719;27;20039;-75
2022/08/04 00:33:48;;;;;;;1999.90;999.90;;;18.60;99.90;;;;;;5127781;27;20503;-75
2022/08/04 00:36:15;;;;;;;1999.90;999.90;;;18.60;99.90;;;;;;5108513;27;20115;-75
2022/08/04 00:38:42;;;;;;;1999.90;999.90;;;18.50;99.90;;;;;;5127994;27;20058;-75
2022/08/04 00:41:38;;;;;;;1999.90;999.90;;;18.50;99.90;;;;;;5127902;27;20475;-75
2022/08/04 00:44:35;;;;;;;1999.90;999.90;;;18.50;99.90;;;;;;5106456;27;20052;-75
2022/08/04 00:47:12;;;;;;;1999.90;999.90;;;18.40;99.90;;;;;;5127321;27;20031;-75
2022/08/04 00:49:59;;;;;;;1999.90;999.90;;;18.40;99.90;;;;;;5128946;27;20121;-75
2022/08/04 00:52:45;;;;;;;1999.90;999.90;;;18.30;99.90;;;;;;5125781;27;20038;-75
2022/08/04 00:56:05;;;;;;;1999.90;999.90;;;18.30;99.90;;;;;;5096520;27;20178;-75
2022/08/04 00:58:59;;;;;;;1999.90;999.90;;;18.30;99.90;;;;;;5043183;28;20520;-75
2022/08/04 01:01:47;;;;;;;1999.90;999.90;;;18.30;99.90;;;;;;5093275;27;20059;-75
2022/08/04 01:04:45;;;;;;;1999.90;999.90;;;18.30;99.90;;;;;;5125889;27;20101;-75
2022/08/04 01:07:29;;;;;;;1999.90;999.90;;;18.20;99.90;;;;;;5085202;28;20311;-75
2022/08/04 01:10:09;;;;;;;1999.90;999.90;;;18.20;99.90;;;;;;5124757;27;20039;-75
2022/08/04 01:13:02;;;;;;;1999.90;999.90;;;18.20;99.90;;;;;;5109764;28;20039;-75
2022/08/04 01:15:52;;;;;;;1999.90;999.90;;;18.20;99.90;;;;;;5120303;27;20035;-75
2022/08/04 01:18:31;;;;;;;1999.90;999.90;;;18.10;99.90;;;;;;5123972;27;20550;-75
2022/08/04 01:21:29;;;;;;;1999.90;999.90;;;18.10;99.90;;;;;;5121102;27;20039;-75
2022/08/04 01:24:22;;;;;;;1999.90;999.90;;;18.10;99.90;;;;;;5130479;27;20124;-75
2022/08/04 01:26:51;;;;;;;;;;;18.00;99.90;;;;;;5126671;27;20395;-75
2022/08/04 01:29:21;;;;;;;1999.90;999.90;;;18.10;99.90;;;;;;5108973;27;19927;-75
2022/08/04 01:32:01;;;;;;;1999.90;999.90;;;18.10;99.90;;;;;;5129821;27;20046;-75
2022/08/04 01:34:35;;;;;;;1999.90;999.90;;;18.10;99.90;;;;;;5117694;27;20839;-75
2022/08/04 01:37:25;;;;;;;1999.90;999.90;;;18.10;99.90;;;;;;5125932;27;20043;-75
2022/08/04 01:40:01;;;;;;;1999.90;999.90;;;18.10;99.90;;;;;;5108027;27;20055;-75
2022/08/04 01:42:29;;;;;;;1999.90;999.90;;;18.10;99.90;;;;;;5129562;27;20407;-75
2022/08/04 01:44:59;;;;;;;1999.90;999.90;;;18.10;99.90;;;;;;5118426;27;20041;-75
2022/08/04 01:47:28;;;;;;;1999.90;999.90;;;18.10;99.90;;;;;;5125959;27;20164;-75
2022/08/04 01:50:00;;;;;;;1999.90;999.90;;;18.10;99.90;;;;;;5113600;27;20047;-75
2022/08/04 01:52:27;;;;;;;1999.90;999.90;;;18.10;99.90;;;;;;5133221;27;20047;-75
2022/08/04 01:54:54;;;;;;;1999.90;999.90;;;18.10;99.90;;;;;;5125480;27;20057;-75
2022/08/04 01:57:22;;;;;;;1999.90;999.90;;;18.10;99.90;;;;;;5113872;27;20078;-76
2022/08/04 01:59:51;;;;;;;1999.90;999.90;;;18.10;99.90;;;;;;5131330;27;20412;-75
2022/08/04 02:02:21;;;;;;;1999.90;999.90;;;18.10;99.90;;;;;;5124506;27;20144;-75
2022/08/04 02:04:46;;;;;;;1999.90;999.90;;;18.20;99.90;;;;;;5108882;27;20127;-75
2022/08/04 02:07:31;;;;;;;1999.90;999.90;;;18.10;99.90;;;;;;5131759;27;20562;-75
2022/08/04 02:10:11;;;;;;;1999.90;999.90;;;18.10;99.90;;;;;;5128000;27;20453;-75
2022/08/04 02:12:42;;;;;;;1999.90;999.90;;;18.10;99.90;;;;;;5131939;27;20046;-75
2022/08/04 02:15:50;;;;;;;1999.90;999.90;;;18.20;99.90;;;;;;5124294;27;20042;-75
2022/08/04 02:18:23;;;;;;;1999.90;999.90;;;18.20;99.90;;;;;;5112814;27;20130;-75
2022/08/04 02:20:54;;;;;;;1999.90;999.90;;;18.20;99.90;;;;;;5130833;27;20145;-75
2022/08/04 02:23:39;;;;;;;1999.90;999.90;;;18.20;99.90;;;;;;5112566;27;20100;-75
2022/08/04 02:26:16;;;;;;;1999.90;999.90;;;18.20;99.90;;;;;;5123450;27;20106;-75
2022/08/04 02:29:10;;;;;;;1999.90;999.90;;;18.20;99.90;;;;;;5126704;27;20080;-75
2022/08/04 02:31:43;;;;;;;1999.90;999.90;;;18.10;99.90;;;;;;5093860;27;20371;-75
2022/08/04 02:34:30;;;;;;;1999.90;999.90;;;18.10;99.90;;;;;;5107304;27;20054;-75
2022/08/04 02:36:58;;;;;;;1999.90;999.90;;;18.10;99.90;;;;;;5120226;27;20112;-74
2022/08/04 02:39:30;;;;;;;1999.90;999.90;;;18.20;99.90;;;;;;5113978;27;20134;-75
2022/08/04 02:41:58;;;;;;;1999.90;999.90;;;18.20;99.90;;;;;;5102290;27;20491;-75
2022/08/04 02:44:27;;;;;;;1999.90;999.90;;;18.20;99.90;;;;;;5131780;27;20123;-75
2022/08/04 02:46:53;;;;;;;1999.90;999.90;;;18.10;99.90;;;;;;5129983;27;20148;-75
2022/08/04 02:49:21;;;;;;;1999.90;999.90;;;18.20;99.90;;;;;;5113735;27;20100;-75
2022/08/04 02:51:51;;;;;;;1999.90;999.90;;;18.20;99.90;;;;;;5094599;27;20043;-75
2022/08/04 02:54:22;;;;;;;1999.90;999.90;;;18.20;99.90;;;;;;5126212;27;20047;-75
2022/08/04 02:56:49;;;;;;;1999.90;999.90;;;18.10;99.90;;;;;;5110342;27;20513;-75
2022/08/04 02:59:19;;;;;;;1999.90;999.90;;;18.10;99.90;;;;;;5131927;27;20068;-75
2022/08/04 03:01:44;;;;;;;1999.90;999.90;;;18.10;99.90;;;;;;5128590;27;20395;-75
2022/08/04 03:04:16;;;;;;;1999.90;999.90;;;18.10;99.90;;;;;;5108890;27;20055;-75
2022/08/04 03:07:18;;;;;;;1999.90;999.90;;;18.10;99.90;;;;;;5129037;27;20091;-75
2022/08/04 03:10:00;;;;;;;1999.90;999.90;;;18.10;99.90;;;;;;5081035;27;20047;-75
2022/08/04 03:12:45;;;;;;;1999.90;999.90;;;18.10;99.90;;;;;;5118980;27;20043;-75
2022/08/04 03:15:49;;;;;;;1999.90;999.90;;;18.00;99.90;;;;;;5090798;27;20047;-75
2022/08/04 03:18:33;;;;;;;1999.90;999.90;;;18.00;99.90;;;;;;5121658;27;20122;-75
2022/08/04 03:21:19;;;;;;;1999.90;999.90;;;18.00;99.90;;;;;;5121215;27;20491;-75
2022/08/04 03:24:29;;;;;;;1999.90;999.90;;;18.00;99.90;;;;;;5131666;27;20043;-75
2022/08/04 03:27:25;;;;;;;1999.90;999.90;;;18.00;99.90;;;;;;5101892;27;20487;-75
2022/08/04 03:30:03;;;;;;;1999.90;999.90;;;18.00;99.90;;;;;;5126409;27;20495;-75
2022/08/04 03:32:47;;;;;;;1999.90;999.90;;;18.00;99.90;;;;;;5110818;27;20040;-75
2022/08/04 03:35:48;;;;;;;1999.90;999.90;;;18.00;99.90;;;;;;5127888;27;20155;-75
2022/08/04 03:38:51;;;;;;;1999.90;999.90;;;18.00;99.90;;;;;;5115052;27;20501;-75
2022/08/04 03:41:34;;;;;;;;;;;18.00;99.90;;;;;;5130151;27;20075;-75
2022/08/04 03:44:17;;;;;;;1999.90;999.90;;;18.00;99.90;;;;;;5119234;27;20395;-75
2022/08/04 03:47:08;;;;;;;1999.90;999.90;;;18.00;99.90;;;;;;5089294;27;20039;-75
2022/08/04 03:49:53;;;;;;;1999.90;999.90;;;18.00;99.90;;;;;;5111760;27;20054;-75
2022/08/04 03:55:38;;;;;;;1999.90;999.90;;;18.00;99.90;;;;;;5127753;27;20043;-75
2022/08/04 03:58:16;;;;;;;1999.90;999.90;;;18.00;99.90;;;;;;5112207;27;20039;-75
2022/08/04 04:00:50;;;;;;;1999.90;999.90;;;18.00;99.90;;;;;;5125597;27;20352;-75
2022/08/04 04:03:28;;;;;;;1999.90;999.90;;;18.00;99.90;;;;;;5110891;27;20027;-75
2022/08/04 04:06:18;;;;;;;1999.90;999.90;;;18.00;99.90;;;;;;5127087;27;20092;-75
2022/08/04 04:09:11;;;;;;;1999.90;999.90;;;17.90;99.90;;;;;;5129264;27;20039;-75
2022/08/04 04:11:37;;;;;;;;;;;17.90;99.90;;;;;;5143023;27;20168;-75
2022/08/04 04:14:37;;;;;;;1999.90;999.90;;;18.00;99.90;;;;;;5117256;27;20006;-75
2022/08/04 04:17:25;;;;;;;1999.90;999.90;;;17.90;99.90;;;;;;5094444;27;20499;-75
2022/08/04 04:20:01;;;;;;;1999.90;999.90;;;18.00;99.90;;;;;;5129909;27;20050;-75
2022/08/04 04:22:47;;;;;;;1999.90;999.90;;;18.00;99.90;;;;;;5127596;27;20122;-75
2022/08/04 04:25:42;;;;;;;1999.90;999.90;;;18.00;99.90;;;;;;5128000;27;20070;-75
2022/08/04 04:28:33;;;;;;;1999.90;999.90;;;18.00;99.90;;;;;;5122852;27;20076;-75
2022/08/04 04:31:21;;;;;;;1999.90;999.90;;;18.00;99.90;;;;;;5085723;27;20049;-75
2022/08/04 04:33:57;;;;;;;1999.90;999.90;;;18.00;99.90;;;;;;5120615;27;20050;-75
2022/08/04 04:36:37;;;;;;;1999.90;999.90;;;18.00;99.90;;;;;;5126092;27;20547;-75
2022/08/04 04:39:20;;;;;;;1999.90;999.90;;;18.10;99.90;;;;;;5125404;27;20047;-75
2022/08/04 04:42:17;;;;;;;1999.90;999.90;;;18.10;99.90;;;;;;5127873;27;20596;-75
2022/08/04 04:44:57;;;;;;;1999.90;999.90;;;18.20;99.90;;;;;;5121877;27;20039;-75
2022/08/04 04:47:28;;;;;;;1999.90;999.90;;;18.20;99.90;;;;;;5110728;27;20055;-75
2022/08/04 04:50:02;;;;;;;1999.90;999.90;;;18.30;99.90;;;;;;5127540;27;20088;-75
2022/08/04 04:52:40;;;;;;;1999.90;999.90;;;18.30;99.90;;;;;;5128006;27;20506;-75
2022/08/04 04:55:25;;;;;;;1999.90;999.90;;;18.40;99.90;;;;;;5126769;27;20134;-75
2022/08/04 04:57:55;;;;;;;1999.90;999.90;;;18.40;99.90;;;;;;5128464;27;20050;-75
2022/08/04 05:00:25;;;;;;;1999.90;999.90;;;18.50;99.90;;;;;;5099078;27;20035;-75
2022/08/04 05:03:12;;;;;;;1999.90;999.90;;;18.60;99.90;;;;;;5106140;28;20122;-75
2022/08/04 05:06:06;;;;;;;1999.90;999.90;;;18.60;99.90;;;;;;5125096;27;20126;-75
2022/08/04 05:08:52;;;;;;;1999.90;999.90;;;18.70;99.90;;;;;;5126303;28;20436;-75
2022/08/04 05:11:33;;;;;;;1999.90;999.90;;;18.80;99.90;;;;;;5126013;28;20043;-75
2022/08/04 05:14:15;;;;;;;1999.90;999.90;;;18.90;99.90;;;;;;5122814;28;20047;-75
2022/08/04 05:16:46;;;;;;;1999.90;999.90;;;19.00;99.90;;;;;;5124025;28;20053;-75
2022/08/04 05:19:43;;;;;;;1999.90;999.90;;;19.10;99.90;;;;;;5106260;28;20274;-75
2022/08/04 05:22:15;;;;;;;1999.90;999.90;;;19.20;99.90;;;;;;5125197;28;20039;-75
2022/08/04 05:24:43;;;;;;;1999.90;999.90;;;19.40;99.90;;;;;;5127688;28;20043;-75
2022/08/04 05:27:35;;;;;;;1999.90;999.90;;;19.50;99.90;;;;;;5127682;28;20042;-75
2022/08/04 05:30:03;;;;;;;1999.90;999.90;;;19.70;99.90;;;;;;5121345;28;20385;-75
2022/08/04 05:32:43;;;;;;;1999.90;999.90;;;19.90;99.90;;;;;;5129378;28;20050;-75
2022/08/04 05:35:14;;;;;;;1999.90;999.90;;;20.00;99.90;;;;;;5128917;28;20039;-75
2022/08/04 05:37:42;;;;;;;1999.90;999.90;;;20.10;99.90;;;;;;5109624;28;20039;-75
2022/08/04 05:40:11;;;;;;;1999.90;999.90;;;20.30;99.90;;;;;;5129005;28;20061;-75
2022/08/04 05:42:39;;;;;;;1999.90;999.90;;;20.40;99.90;;;;;;5108288;28;20078;-75
2022/08/04 05:45:07;;;;;;;1999.90;999.90;;;20.50;99.90;;;;;;5087267;28;20042;-75
2022/08/04 05:47:35;;;;;;;1999.90;999.90;;;20.80;99.90;;;;;;5126298;27;20043;-75
2022/08/04 05:50:03;;;;;;;1999.90;999.90;;;20.90;99.90;;;;;;5106513;28;20043;-75
2022/08/04 05:52:33;;;;;;;1999.90;999.90;;;21.10;99.90;;;;;;5122527;27;20460;-76
2022/08/04 05:55:00;;;;;;;1999.90;999.90;;;21.30;99.90;;;;;;5129745;27;20039;-75
2022/08/04 05:57:26;;;;;;;1999.90;999.90;;;21.50;99.90;;;;;;5135145;27;20046;-75
2022/08/04 05:59:56;;;;;;;1999.90;999.90;;;21.70;99.90;;;;;;5121808;27;20235;-76
2022/08/04 06:02:24;;;;;;;1999.90;999.90;;;22.30;99.90;;;;;;5108029;27;20142;-75
2022/08/04 06:04:51;;;;;;;1999.90;999.90;;;22.90;99.90;;;;;;5137621;27;20474;-75
2022/08/04 06:07:17;;;;;;;1999.90;999.90;;;23.50;99.90;;;;;;5129133;27;20043;-76
2022/08/04 06:09:43;;;;;;;1999.90;999.90;;;23.90;99.90;;;;;;5122596;27;20039;-75
2022/08/04 06:12:16;;;;;;;1999.90;999.90;;;23.80;99.90;;;;;;5128667;27;20047;-76
2022/08/04 06:14:44;;;;;;;1999.90;999.90;;;23.70;99.90;;;;;;5130445;27;20120;-75
2022/08/04 06:17:14;;;;;;;1999.90;999.90;;;23.60;99.90;;;;;;5120610;27;20035;-75
2022/08/04 06:19:42;;;;;;;1999.90;999.90;;;23.50;99.90;;;;;;5118241;27;20051;-75
2022/08/04 06:22:11;;;;;;;1999.90;999.90;;;23.50;99.90;;;;;;5128003;27;20043;-76
2022/08/04 06:24:38;;;;;;;1999.90;999.90;;;23.50;99.90;;;;;;5124262;27;20031;-77
2022/08/04 06:27:05;;;;;;;1999.90;999.90;;;23.60;99.90;;;;;;5104641;27;20054;-76
2022/08/04 06:29:37;;;;;;;1999.90;999.90;;;23.80;99.90;;;;;;5127313;27;20058;-76
2022/08/04 06:32:23;;;;;;;1999.90;999.90;;;24.10;99.90;;;;;;5127424;27;20451;-77
2022/08/04 06:34:53;;;;;;;1999.90;999.90;;;24.50;99.90;;;;;;5132781;27;20046;-76
2022/08/04 06:37:21;;;;;;;1999.90;999.90;;;25.20;99.90;;;;;;5125051;27;20046;-75
2022/08/04 06:39:48;;;;;;;1999.90;999.90;;;25.40;99.90;;;;;;5130213;27;20059;-75
2022/08/04 06:42:16;;;;;;;1999.90;999.90;;;25.40;99.90;;;;;;5126922;27;20046;-75
2022/08/04 06:44:45;;;;;;;1999.90;999.90;;;25.30;99.90;;;;;;5105835;27;20116;-75
2022/08/04 06:47:11;;;;;;;1999.90;999.90;;;25.20;99.90;;;;;;5119075;27;21404;-75
2022/08/04 06:49:38;;;;;;;1999.90;999.90;;;25.10;99.90;;;;;;5100190;27;20051;-75
2022/08/04 06:52:05;;;;;;;1999.90;999.90;;;25.10;99.90;;;;;;5109980;27;20046;-74
2022/08/04 06:54:30;;;;;;;1999.90;999.90;;;25.10;99.90;;;;;;5108278;27;20042;-75
2022/08/04 06:56:57;;;;;;;1999.90;999.90;;;25.10;99.90;;;;;;5120920;27;20513;-75
2022/08/04 06:59:26;;;;;;;1999.90;999.90;;;25.10;99.90;;;;;;5124749;27;20110;-75
2022/08/04 07:01:52;;;;;;;1999.90;999.90;;;25.30;99.90;;;;;;5088020;28;20044;-75
2022/08/04 07:04:18;;;;;;;1999.90;999.90;;;25.40;99.90;;;;;;5131394;27;20039;-75
2022/08/04 07:06:44;;;;;;;1999.90;999.90;;;25.70;99.90;;;;;;5135180;27;20113;-75
2022/08/04 07:09:10;;;;;;;1999.90;999.90;;;26.10;99.90;;;;;;5134375;27;20118;-75
2022/08/04 07:11:36;;;;;;;1999.90;999.90;;;26.60;99.90;;;;;;5134552;27;20113;-75
2022/08/04 07:14:04;;;;;;;1999.90;999.90;;;26.90;99.90;;;;;;5133214;27;20039;-75
2022/08/04 07:16:30;;;;;;;1999.90;999.90;;;27.30;99.90;;;;;;5111529;27;20047;-75
2022/08/04 07:18:56;;;;;;;1999.90;999.90;;;27.70;99.90;;;;;;5134638;27;20035;-75
2022/08/04 07:21:23;;;;;;;1999.90;999.90;;;27.90;99.90;;;;;;5127037;27;20044;-75
2022/08/04 07:23:50;;;;;;;1999.90;999.90;;;27.60;99.90;;;;;;5128726;27;20038;-76
2022/08/04 07:26:17;;;;;;;1999.90;999.90;;;27.90;99.90;;;;;;5092706;27;20398;-75
2022/08/04 07:28:44;;;;;;;1999.90;999.90;;;28.20;99.90;;;;;;5128367;27;20038;-76
2022/08/04 07:31:14;;;;;;;1999.90;999.90;;;28.20;99.90;;;;;;5130678;27;20139;-75
2022/08/04 07:33:41;;;;;;;1999.90;999.90;;;28.00;99.90;;;;;;5126372;27;20061;-76
2022/08/04 07:36:07;;;;;;;1999.90;999.90;;;27.70;99.90;;;;;;5137268;27;20081;-76
2022/08/04 07:38:33;;;;;;;1999.90;999.90;;;27.50;99.90;;;;;;5126708;27;20079;-75
2022/08/04 07:41:00;;;;;;;1999.90;999.90;;;27.20;99.90;;;;;;5129822;27;20047;-76
2022/08/04 07:43:26;;;;;;;1999.90;999.90;;;27.10;99.90;;;;;;5099746;28;20437;-76
2022/08/04 07:45:52;;;;;;;1999.90;999.90;;;27.00;99.90;;;;;;5118611;27;20062;-76
2022/08/04 07:48:21;;;;;;;1999.90;999.90;;;27.00;99.90;;;;;;5122933;27;20039;-76
2022/08/04 07:50:47;;;;;;;1999.90;999.90;;;26.90;99.90;;;;;;5103922;27;20040;-76
2022/08/04 07:53:13;;;;;;;1999.90;999.90;;;26.80;99.90;;;;;;5130700;27;20463;-76
2022/08/04 07:55:39;;;;;;;1999.90;999.90;;;26.60;99.90;;;;;;5126388;27;20024;-76
2022/08/04 07:58:04;;;;;;;1999.90;999.90;;;26.50;99.90;;;;;;5124569;27;20117;-76
2022/08/04 08:00:31;;;;;;;1999.90;999.90;;;26.40;99.90;;;;;;5124884;27;20131;-76
2022/08/04 08:02:57;;;;;;;1999.90;999.90;;;26.40;99.90;;;;;;5135321;27;20540;-76
2022/08/04 08:05:23;;;;;;;1999.90;999.90;;;26.50;99.90;;;;;;5109999;27;20558;-76
2022/08/04 08:07:50;;;;;;;1999.90;999.90;;;26.60;99.90;;;;;;5134319;27;20125;-75
2022/08/04 08:10:16;;;;;;;1999.90;999.90;;;26.60;99.90;;;;;;5127712;27;20039;-76
2022/08/04 08:12:42;;;;;;;1999.90;999.90;;;26.70;99.90;;;;;;5123705;27;20478;-76
2022/08/04 08:15:11;;;;;;;1999.90;999.90;;;26.80;99.90;;;;;;5127484;27;20027;-76
2022/08/04 08:17:37;;;;;;;1999.90;999.90;;;26.80;99.90;;;;;;5126127;27;20043;-76
2022/08/04 08:20:05;;;;;;;1999.90;999.90;;;26.80;99.90;;;;;;5126572;27;20039;-76
2022/08/04 08:22:31;;;;;;;1999.90;999.90;;;26.70;99.90;;;;;;5127475;27;20118;-76
2022/08/04 08:24:57;;;;;;;1999.90;999.90;;;26.70;99.90;;;;;;5126083;27;20111;-76
2022/08/04 08:27:23;;;;;;;1999.90;999.90;;;26.80;99.90;;;;;;5118419;27;20035;-76
2022/08/04 08:29:49;;;;;;;1999.90;999.90;;;26.90;99.90;;;;;;5114279;27;20406;-76
2022/08/04 08:32:15;;;;;;;1999.90;999.90;;;27.00;99.90;;;;;;5141980;27;20049;-75
2022/08/04 08:34:42;;;;;;;1999.90;999.90;;;27.00;99.90;;;;;;5128671;27;20035;-76
2022/08/04 08:37:30;;;;;;;1999.90;999.90;;;27.10;99.90;;;;;;5096796;27;20047;-75
2022/08/04 08:40:20;;;;;;;1999.90;999.90;;;27.20;99.90;;;;;;5100422;27;20054;-76
2022/08/04 08:43:15;;;;;;;1999.90;999.90;;;27.40;99.90;;;;;;5135768;27;20076;-76
2022/08/04 08:46:03;;;;;;;1999.90;999.90;;;27.30;99.90;;;;;;5113041;27;20073;-75
2022/08/04 08:48:54;;;;;;;1999.90;999.90;;;27.30;99.90;;;;;;5119920;27;20511;-76
2022/08/04 08:51:39;;;;;;;1999.90;999.90;;;27.50;99.90;;;;;;5130183;27;20047;-76
2022/08/04 08:54:36;;;;;;;1999.90;999.90;;;27.90;99.90;;;;;;5127886;27;20114;-75
2022/08/04 08:57:31;;;;;;;1999.90;999.90;;;28.20;99.90;;;;;;5116424;27;20092;-75
2022/08/04 09:00:05;;;;;;;1999.90;999.90;;;27.90;99.90;;;;;;5122005;27;20034;-75
2022/08/04 09:02:44;;;;;;;1999.90;999.90;;;27.30;99.90;;;;;;5103372;28;20847;-76
2022/08/04 09:05:29;;;;;;;1999.90;999.90;;;27.10;99.90;;;;;;5124790;27;20554;-75
2022/08/04 09:08:29;;;;;;;1999.90;999.90;;;27.50;99.90;;;;;;5131765;27;20089;-75
2022/08/04 09:11:18;;;;;;;1999.90;999.90;;;27.60;99.90;;;;;;5128651;27;20043;-76
2022/08/04 09:13:55;;;;;;;1999.90;999.90;;;27.90;99.90;;;;;;5130172;27;20572;-76
2022/08/04 09:16:35;;;;;;;1999.90;999.90;;;28.80;99.90;;;;;;5113355;27;20118;-76
2022/08/04 09:19:13;;;;;;;1999.90;999.90;;;29.80;99.90;;;;;;5126811;27;20043;-75
2022/08/04 09:21:50;;;;;;;1999.90;999.90;;;30.50;97.30;;;;;;5137547;27;20026;-76
2022/08/04 09:24:27;;;;;;;1999.90;999.90;;;30.30;96.50;;;;;;5115306;28;20090;-75
2022/08/04 09:27:00;;;;;;;1999.90;999.90;;;30.40;97.90;;;;;;5138117;27;20046;-76
2022/08/04 09:29:35;;;;;;;1999.90;999.90;;;30.70;95.70;;;;;;5132773;27;20036;-76
2022/08/04 09:32:38;;;;;;;1999.90;999.90;;;30.70;94.90;;;;;;5133785;27;20400;-76
2022/08/04 09:35:32;;;;;;;1999.90;999.90;;;30.70;94.50;;;;;;5100032;27;20047;-75
2022/08/04 09:38:26;;;;;;;1999.90;999.90;;;30.60;94.50;;;;;;5130887;27;20088;-75
2022/08/04 09:41:21;;;;;;;1999.90;999.90;;;30.50;93.80;;;;;;5134214;27;20501;-75
2022/08/04 09:44:05;;;;;;;1999.90;999.90;;;30.60;94.70;;;;;;5140025;27;20050;-76
2022/08/04 09:46:43;;;;;;;1999.90;999.90;;;30.60;95.00;;;;;;5118535;27;20041;-75
2022/08/04 09:49:32;;;;;;;1999.90;999.90;;;30.90;93.90;;;;;;5114100;27;20043;-75
2022/08/04 09:52:04;;;;;;;1999.90;999.90;;;30.60;93.60;;;;;;5133649;27;20035;-75
2022/08/04 09:54:51;;;;;;;1999.90;999.90;;;30.20;92.70;;;;;;5126621;27;20045;-76
2022/08/04 09:57:50;;;;;;;1999.90;999.90;;;29.70;93.80;;;;;;5121977;27;20047;-76
2022/08/04 10:00:19;;;;;;;1999.90;999.90;;;29.60;93.70;;;;;;5133317;27;20039;-75
2022/08/04 10:02:59;;;;;;;1999.90;999.90;;;29.70;90.70;;;;;;5130002;27;20632;-75
2022/08/04 10:05:47;;;;;;;1999.90;999.90;;;30.00;93.20;;;;;;5132820;27;20087;-76
2022/08/04 10:08:35;;;;;;;1999.90;999.90;;;30.30;92.00;;;;;;5133053;27;20047;-75
2022/08/04 10:11:31;;;;;;;1999.90;999.90;;;30.50;91.50;;;;;;5123373;27;20043;-76
2022/08/04 10:14:09;;;;;;;1999.90;999.90;;;30.30;90.50;;;;;;5132238;27;20039;-76
2022/08/04 10:16:57;;;;;;;1999.90;999.90;;;29.80;90.50;;;;;;5126572;27;20039;-75
2022/08/04 10:19:35;;;;;;;1999.90;999.90;;;29.40;91.00;;;;;;5121577;27;20368;-75
2022/08/04 10:22:14;;;;;;;1999.90;999.90;;;29.00;91.40;;;;;;5124714;27;20050;-76
2022/08/04 10:24:51;;;;;;;1999.90;999.90;;;28.70;92.30;;;;;;5093743;27;20036;-75
2022/08/04 10:27:39;;;;;;;1999.90;999.90;;;28.60;93.00;;;;;;5127627;27;20184;-75
2022/08/04 10:30:11;;;;;;;1999.90;999.90;;;28.60;92.90;;;;;;5135506;27;20050;-76
2022/08/04 10:33:19;;;;;;;1999.90;999.90;;;28.50;94.20;;;;;;5121890;27;20410;-75
2022/08/04 10:35:50;;;;;;;1999.90;999.90;;;28.40;94.30;;;;;;5127740;27;20050;-75
2022/08/04 10:38:28;;;;;;;1999.90;999.90;;;28.40;94.40;;;;;;5128330;27;20044;-75
2022/08/04 10:41:00;;;;;;;1999.90;999.90;;;28.50;94.80;;;;;;5108923;27;20039;-75
2022/08/04 10:43:58;;;;;;;1999.90;999.90;;;28.60;94.80;;;;;;5118470;27;20455;-75
2022/08/04 10:46:29;;;;;;;1999.90;999.90;;;28.80;96.40;;;;;;5107381;27;20056;-75
2022/08/04 10:49:00;;;;;;;1999.90;999.90;;;29.00;95.20;;;;;;5104945;27;20176;-75
2022/08/04 10:51:42;;;;;;;1999.90;999.90;;;29.10;95.90;;;;;;5126756;27;20042;-75
2022/08/04 10:54:14;;;;;;;1999.90;999.90;;;29.10;95.10;;;;;;5110227;27;20451;-76
2022/08/04 10:56:53;;;;;;;1999.90;999.90;;;29.10;96.10;;;;;;5108446;27;20035;-75
2022/08/04 10:59:31;;;;;;;1999.90;999.90;;;29.10;95.20;;;;;;5128390;27;20272;-75
2022/08/04 11:02:04;;;;;;;1999.90;999.90;;;28.90;95.20;;;;;;5118612;27;20039;-76
2022/08/04 11:04:39;;;;;;;1999.90;999.90;;;28.80;95.00;;;;;;5126336;27;20031;-75
2022/08/04 11:07:06;;;;;;;1999.90;999.90;;;28.70;94.40;;;;;;5093781;27;20043;-75
2022/08/04 11:09:33;;;;;;;1999.90;999.90;;;28.80;94.70;;;;;;5089276;27;20428;-75
2022/08/04 11:12:23;;;;;;;1999.90;999.90;;;28.80;93.70;;;;;;5125662;27;20047;-75
2022/08/04 11:15:10;;;;;;;1999.90;999.90;;;28.80;93.50;;;;;;5103741;27;20038;-75
2022/08/04 11:17:56;;;;;;;1999.90;999.90;;;28.70;94.30;;;;;;5098429;27;20136;-75
2022/08/04 11:20:34;;;;;;;1999.90;999.90;;;28.70;93.60;;;;;;5121994;27;21577;-75
2022/08/04 11:23:13;;;;;;;1999.90;999.90;;;28.60;94.00;;;;;;5100295;27;20123;-75
2022/08/04 11:25:43;;;;;;;1999.90;999.90;;;28.50;94.10;;;;;;5121678;27;20031;-75
2022/08/04 11:28:51;;;;;;;1999.90;999.90;;;28.50;93.50;;;;;;5117422;27;20035;-75
2022/08/04 11:31:24;;;;;;;1999.90;999.90;;;28.50;93.30;;;;;;5119895;27;20042;-75
2022/08/04 11:34:04;;;;;;;1999.90;999.90;;;28.50;93.40;;;;;;5111473;27;20043;-75
2022/08/04 11:36:40;;;;;;;1999.90;999.90;;;28.40;93.10;;;;;;5112129;27;20054;-75
2022/08/04 11:39:11;;;;;;;1999.90;999.90;;;28.30;92.60;;;;;;5128884;27;20552;-75
2022/08/04 11:41:47;;;;;;;1999.90;999.90;;;28.00;92.20;;;;;;5087995;28;20069;-75
2022/08/04 11:44:27;;;;;;;1999.90;999.90;;;28.00;92.30;;;;;;5132299;27;20118;-75
2022/08/04 11:46:58;;;;;;;1999.90;999.90;;;28.10;92.60;;;;;;5115578;27;20062;-75
2022/08/04 11:49:43;;;;;;;1999.90;999.90;;;28.20;92.30;;;;;;5104787;27;20536;-75
2022/08/04 11:52:11;;;;;;;1999.90;999.90;;;28.20;92.20;;;;;;5119253;27;20434;-75
2022/08/04 11:54:37;;;;;;;1999.90;999.90;;;28.00;92.00;;;;;;5131060;27;20039;-74
2022/08/04 11:57:03;;;;;;;1999.90;999.90;;;27.80;91.70;;;;;;5131060;27;20034;-74
2022/08/04 11:59:33;;;;;;;1999.90;999.90;;;27.70;91.60;;;;;;5117905;27;20042;-74
2022/08/04 12:02:29;;;;;;;1999.90;999.90;;;27.60;92.20;;;;;;5131464;27;20050;-74
2022/08/04 12:04:58;;;;;;;1999.90;999.90;;;27.50;92.10;;;;;;5108307;27;20479;-75
2022/08/04 12:07:39;;;;;;;1999.90;999.90;;;27.40;91.60;;;;;;5095376;27;20118;-74
2022/08/04 12:10:35;;;;;;;1999.90;999.90;;;27.30;91.40;;;;;;5120513;27;20062;-74
2022/08/04 12:13:33;;;;;;;1999.90;999.90;;;27.20;91.50;;;;;;5130658;27;20402;-75
2022/08/04 12:16:28;;;;;;;1999.90;999.90;;;27.00;91.90;;;;;;5130335;27;20479;-74
2022/08/04 12:19:01;;;;;;;1999.90;999.90;;;27.00;91.90;;;;;;5128808;27;20087;-75
2022/08/04 12:21:34;;;;;;;1999.90;999.90;;;27.00;91.60;;;;;;5130580;27;20372;-74
2022/08/04 12:24:04;;;;;;;1999.90;999.90;;;26.80;91.80;;;;;;5116016;27;20091;-75
2022/08/04 12:26:38;;;;;;;1999.90;999.90;;;26.80;92.00;;;;;;5143683;27;20070;-74
2022/08/04 12:29:07;;;;;;;1999.90;999.90;;;26.70;91.60;;;;;;5133692;27;20455;-75
2022/08/04 12:31:47;;;;;;;1999.90;999.90;;;26.60;92.10;;;;;;5121968;27;20118;-74
2022/08/04 12:34:32;;;;;;;1999.90;999.90;;;26.60;91.40;;;;;;5147933;27;20046;-75
2022/08/04 12:37:20;;;;;;;1999.90;999.90;;;26.50;92.10;;;;;;5101538;27;20057;-74
2022/08/04 12:39:49;;;;;;;1999.90;999.90;;;26.60;92.40;;;;;;5122000;27;20055;-74
2022/08/04 12:42:36;;;;;;;1999.90;999.90;;;26.80;92.60;;;;;;5133503;27;20051;-75
2022/08/04 12:45:10;;;;;;;1999.90;999.90;;;27.10;92.20;;;;;;5107831;27;20044;-74
2022/08/04 12:47:36;;;;;;;1999.90;999.90;;;27.40;92.00;;;;;;5122367;27;20047;-74
2022/08/04 12:50:04;;;;;;;1999.90;999.90;;;27.60;91.40;;;;;;5128637;27;20487;-74
2022/08/04 12:52:40;;;;;;;1999.90;999.90;;;27.80;92.90;;;;;;5111895;27;20035;-74